Time;durP1;ratioP1;P1;durP2;ratioP2;P2;SDS_P1;SDS_P2;PMS_P1;PMS_P2;Temp;Humidity;BMP_temperature;BMP_pressure;BME280_temperature;BME280_humidity;BME280_pressure;Samples;Min_cycle;Max_cycle;Signal;HPM_P1;HPM_P2
2020/12/11 00:00:56;;;;;;;14.00;10.00;;;1.10;99.90;;;;;;5015785;28;20202;-76
2020/12/11 00:03:22;;;;;;;11.93;9.30;;;1.10;99.90;;;;;;5014205;28;20183;-78
2020/12/11 00:05:47;;;;;;;13.50;10.73;;;1.10;99.90;;;;;;5015795;28;20267;-78
2020/12/11 00:08:13;;;;;;;14.87;10.50;;;1.10;99.90;;;;;;5015500;28;20210;-80
2020/12/11 00:10:39;;;;;;;13.97;10.60;;;1.10;99.90;;;;;;5015319;28;20190;-81
2020/12/11 00:13:04;;;;;;;13.10;10.27;;;1.10;99.90;;;;;;5015105;28;20182;-77
2020/12/11 00:15:30;;;;;;;15.10;10.80;;;1.00;99.90;;;;;;5015611;28;20178;-78
2020/12/11 00:17:55;;;;;;;17.70;11.43;;;1.10;99.90;;;;;;5014270;28;20635;-76
2020/12/11 00:20:21;;;;;;;15.23;10.47;;;1.00;99.90;;;;;;5015083;28;20193;-77
2020/12/11 00:22:47;;;;;;;17.97;10.43;;;1.00;99.90;;;;;;5015036;28;20175;-75
2020/12/11 00:25:12;;;;;;;13.80;10.87;;;1.00;99.90;;;;;;5015003;28;20216;-76
2020/12/11 00:27:38;;;;;;;12.87;9.83;;;1.00;99.90;;;;;;5015037;28;20210;-75
2020/12/11 00:30:04;;;;;;;13.10;9.37;;;0.90;99.90;;;;;;5014925;28;20202;-77
2020/12/11 00:32:30;;;;;;;14.00;10.95;;;0.90;99.90;;;;;;5014675;28;20185;-76
2020/12/11 00:34:55;;;;;;;17.43;12.00;;;0.90;99.90;;;;;;5014790;28;20245;-77
2020/12/11 00:37:21;;;;;;;15.67;11.60;;;1.00;99.90;;;;;;5014185;28;20266;-81
2020/12/11 00:39:47;;;;;;;13.53;10.40;;;1.00;99.90;;;;;;5014856;28;20183;-78
2020/12/11 00:42:16;;;;;;;13.73;9.80;;;1.10;99.90;;;;;;5014520;28;20230;-75
2020/12/11 00:44:42;;;;;;;15.77;10.07;;;1.20;99.90;;;;;;5014685;28;20587;-77
2020/12/11 00:47:07;;;;;;;14.70;10.20;;;1.10;99.90;;;;;;5014631;28;20172;-77
2020/12/11 00:49:33;;;;;;;14.53;9.93;;;1.10;99.90;;;;;;5014758;28;20738;-77
2020/12/11 00:51:59;;;;;;;14.67;9.77;;;1.10;99.90;;;;;;5013566;28;20194;-80
2020/12/11 00:54:24;;;;;;;12.27;8.63;;;1.10;99.90;;;;;;5014787;28;20187;-79
2020/12/11 00:56:50;;;;;;;12.33;9.60;;;1.10;99.90;;;;;;5014917;28;20227;-78
2020/12/11 00:59:16;;;;;;;13.30;10.10;;;1.00;99.90;;;;;;5015057;28;20421;-79
2020/12/11 01:01:42;;;;;;;13.50;9.73;;;1.00;99.90;;;;;;5013395;28;20230;-80
2020/12/11 01:04:07;;;;;;;16.02;10.50;;;1.10;99.90;;;;;;5014372;28;20258;-78
2020/12/11 01:06:33;;;;;;;13.13;9.77;;;1.10;99.90;;;;;;5015082;28;20652;-79
2020/12/11 01:08:59;;;;;;;16.87;10.50;;;1.10;99.90;;;;;;5014220;28;20207;-78
2020/12/11 01:11:24;;;;;;;14.00;10.57;;;1.20;99.90;;;;;;5014397;28;20218;-79
2020/12/11 01:13:50;;;;;;;13.03;10.60;;;1.10;99.90;;;;;;5013188;28;20232;-77
2020/12/11 01:16:16;;;;;;;15.10;10.23;;;1.20;99.90;;;;;;5014599;28;20177;-78
2020/12/11 01:18:41;;;;;;;15.60;11.57;;;1.30;99.90;;;;;;5014472;28;20409;-79
2020/12/11 01:21:07;;;;;;;17.93;11.60;;;1.20;99.90;;;;;;5014078;28;20229;-76
2020/12/11 01:23:33;;;;;;;15.73;12.00;;;1.20;99.90;;;;;;5012769;28;20185;-79
2020/12/11 01:25:58;;;;;;;17.13;11.13;;;1.20;99.90;;;;;;5012894;28;20187;-79
2020/12/11 01:28:24;;;;;;;15.97;10.80;;;1.20;99.90;;;;;;5013957;28;20198;-80
2020/12/11 01:30:49;;;;;;;16.17;11.83;;;1.20;99.90;;;;;;5012733;28;20198;-79
2020/12/11 01:33:15;;;;;;;16.00;12.63;;;1.30;99.90;;;;;;5012570;28;20175;-78
2020/12/11 01:35:43;;;;;;;14.47;10.77;;;1.30;99.90;;;;;;5012705;28;20183;-77
2020/12/11 01:38:08;;;;;;;15.85;11.40;;;1.40;99.90;;;;;;5012622;28;20178;-79
2020/12/11 01:40:37;;;;;;;14.60;11.70;;;1.40;99.90;;;;;;5013816;28;20199;-77
2020/12/11 01:43:03;;;;;;;17.80;12.95;;;1.40;99.90;;;;;;5013518;28;20228;-78
2020/12/11 01:45:29;;;;;;;15.73;11.57;;;1.40;99.90;;;;;;5012480;28;20179;-79
2020/12/11 01:47:54;;;;;;;16.57;11.77;;;1.40;99.90;;;;;;5012278;28;20418;-78
2020/12/11 01:50:20;;;;;;;17.53;11.90;;;1.30;99.90;;;;;;5013529;28;20580;-77
2020/12/11 01:52:47;;;;;;;15.60;11.30;;;1.30;99.90;;;;;;5013482;28;20181;-79
2020/12/11 01:55:13;;;;;;;20.00;12.63;;;1.30;99.90;;;;;;5013834;28;20216;-79
2020/12/11 01:57:45;;;;;;;19.50;12.97;;;1.30;99.90;;;;;;5012281;28;20175;-77
2020/12/11 02:00:11;;;;;;;19.23;13.38;;;1.40;99.90;;;;;;5013469;28;20402;-78
2020/12/11 02:02:37;;;;;;;20.73;14.48;;;1.30;99.90;;;;;;5013222;28;20186;-81
2020/12/11 02:05:10;;;;;;;18.95;13.05;;;1.40;99.90;;;;;;5013695;28;20198;-78
2020/12/11 02:07:39;;;;;;;20.17;13.43;;;1.40;99.90;;;;;;5013387;28;20173;-79
2020/12/11 02:10:06;;;;;;;19.05;14.88;;;1.50;99.90;;;;;;5013359;28;20245;-77
2020/12/11 02:12:32;;;;;;;18.00;12.80;;;1.40;99.90;;;;;;5013189;28;20179;-78
2020/12/11 02:14:58;;;;;;;19.83;13.97;;;1.40;99.90;;;;;;5013440;28;20515;-78
2020/12/11 02:17:26;;;;;;;17.52;12.18;;;1.40;99.90;;;;;;5013320;28;20191;-77
2020/12/11 02:19:53;;;;;;;17.67;13.45;;;1.30;99.90;;;;;;5013410;28;20582;-81
2020/12/11 02:22:19;;;;;;;20.20;12.85;;;1.40;99.90;;;;;;5011892;28;20203;-79
2020/12/11 02:24:44;;;;;;;17.50;12.87;;;1.30;99.90;;;;;;5012196;28;20179;-78
2020/12/11 02:27:10;;;;;;;16.67;12.07;;;1.30;99.90;;;;;;5013318;28;20225;-77
2020/12/11 02:29:36;;;;;;;15.20;10.97;;;1.30;99.90;;;;;;5011832;28;20238;-78
2020/12/11 02:32:01;;;;;;;11.63;9.73;;;1.30;99.90;;;;;;5012894;28;20282;-77
2020/12/11 02:34:27;;;;;;;16.23;13.17;;;1.30;99.90;;;;;;5012093;28;20175;-78
2020/12/11 02:36:58;;;;;;;14.93;11.57;;;1.20;99.90;;;;;;5013259;28;20168;-78
2020/12/11 02:39:24;;;;;;;15.60;11.98;;;1.30;99.90;;;;;;5013242;28;20174;-77
2020/12/11 02:41:49;;;;;;;14.87;9.93;;;1.20;99.90;;;;;;5012933;28;20206;-77
2020/12/11 02:44:15;;;;;;;15.23;11.40;;;1.10;99.90;;;;;;5013007;28;20180;-78
2020/12/11 02:46:41;;;;;;;15.27;11.40;;;1.10;99.90;;;;;;5011951;28;20183;-77
2020/12/11 02:49:06;;;;;;;17.17;11.97;;;1.20;99.90;;;;;;5013038;28;20210;-78
2020/12/11 02:51:32;;;;;;;16.40;12.70;;;1.10;99.90;;;;;;5013212;28;20273;-79
2020/12/11 02:53:57;;;;;;;18.10;13.80;;;1.20;99.90;;;;;;5012647;28;20199;-78
2020/12/11 02:56:23;;;;;;;19.50;13.83;;;1.10;99.90;;;;;;5013156;28;20261;-78
2020/12/11 02:58:49;;;;;;;20.80;13.93;;;1.00;99.90;;;;;;5012099;28;20191;-77
2020/12/11 03:01:15;;;;;;;23.48;14.70;;;1.00;99.90;;;;;;5014417;28;20791;-79
2020/12/11 03:03:42;;;;;;;25.45;16.38;;;0.90;99.90;;;;;;4998954;28;20186;-78
2020/12/11 03:06:08;;;;;;;21.60;15.05;;;0.90;99.90;;;;;;5015387;28;20182;-77
2020/12/11 03:08:34;;;;;;;20.77;15.45;;;0.90;99.90;;;;;;5016367;28;20599;-78
2020/12/11 03:11:00;;;;;;;21.23;15.10;;;0.80;99.90;;;;;;5016414;28;20248;-78
2020/12/11 03:13:26;;;;;;;22.03;15.43;;;0.80;99.90;;;;;;5016305;28;20175;-77
2020/12/11 03:15:51;;;;;;;22.13;16.70;;;0.70;99.90;;;;;;5016801;28;20460;-78
2020/12/11 03:18:17;;;;;;;23.37;16.70;;;0.80;99.90;;;;;;5016324;28;20428;-79
2020/12/11 03:20:43;;;;;;;26.27;17.95;;;0.90;99.90;;;;;;5015116;28;20210;-78
2020/12/11 03:23:09;;;;;;;22.97;16.80;;;0.80;99.90;;;;;;5015870;28;20261;-79
2020/12/11 03:25:34;;;;;;;22.30;17.17;;;0.90;99.90;;;;;;5016353;28;20185;-80
2020/12/11 03:28:00;;;;;;;23.37;16.30;;;0.90;99.90;;;;;;5016059;28;20511;-77
2020/12/11 03:30:26;;;;;;;28.10;19.37;;;1.00;99.90;;;;;;5016105;28;20190;-78
2020/12/11 03:32:51;;;;;;;27.87;17.93;;;0.90;99.90;;;;;;5014605;28;20182;-79
2020/12/11 03:35:17;;;;;;;24.80;17.40;;;1.00;99.90;;;;;;5015998;28;20182;-79
2020/12/11 03:37:42;;;;;;;26.23;17.30;;;0.90;99.90;;;;;;5015934;28;20174;-79
2020/12/11 03:40:08;;;;;;;24.43;16.90;;;1.00;99.90;;;;;;5015821;28;20639;-78
2020/12/11 03:42:34;;;;;;;25.23;18.67;;;0.90;99.90;;;;;;5015562;28;20259;-80
2020/12/11 03:44:59;;;;;;;25.07;17.40;;;1.00;99.90;;;;;;5015885;28;20639;-78
2020/12/11 03:47:28;;;;;;;24.57;16.03;;;1.00;99.90;;;;;;5014556;28;20550;-76
2020/12/11 03:49:54;;;;;;;23.73;16.80;;;0.90;99.90;;;;;;5015641;28;20249;-80
2020/12/11 03:52:19;;;;;;;21.13;16.53;;;0.90;99.90;;;;;;5013975;28;20198;-78
2020/12/11 03:54:45;;;;;;;26.60;17.67;;;0.90;99.90;;;;;;5015593;28;20190;-79
2020/12/11 03:57:10;;;;;;;24.67;17.43;;;0.80;99.90;;;;;;5015655;28;20182;-78
2020/12/11 03:59:36;;;;;;;22.40;16.77;;;0.80;99.90;;;;;;5015687;28;20666;-78
2020/12/11 04:02:02;;;;;;;24.70;15.73;;;0.80;99.90;;;;;;5015500;28;20202;-78
2020/12/11 04:04:27;;;;;;;22.23;15.60;;;0.80;99.90;;;;;;5015442;28;20265;-77
2020/12/11 04:06:53;;;;;;;28.63;17.50;;;0.80;99.90;;;;;;5015420;28;20182;-77
2020/12/11 04:09:18;;;;;;;25.97;17.20;;;0.80;99.90;;;;;;5015331;28;20265;-79
2020/12/11 04:11:44;;;;;;;24.93;16.03;;;0.80;99.90;;;;;;5013131;28;20194;-77
2020/12/11 04:14:10;;;;;;;27.43;18.63;;;0.80;99.90;;;;;;5013940;28;20179;-77
2020/12/11 04:16:35;;;;;;;26.40;17.60;;;0.80;99.90;;;;;;5015374;28;20591;-79
2020/12/11 04:19:01;;;;;;;23.33;16.03;;;0.80;99.90;;;;;;5015323;28;20185;-78
2020/12/11 04:21:27;;;;;;;25.42;16.52;;;0.80;99.90;;;;;;5015227;28;20195;-77
2020/12/11 04:23:52;;;;;;;20.00;14.33;;;0.90;99.90;;;;;;5014765;28;20189;-79
2020/12/11 04:26:18;;;;;;;21.67;15.43;;;0.80;99.90;;;;;;5015261;28;20179;-78
2020/12/11 04:28:44;;;;;;;22.10;15.37;;;0.90;99.90;;;;;;5015039;28;20605;-79
2020/12/11 04:31:10;;;;;;;22.00;15.23;;;0.90;99.90;;;;;;5015070;28;20562;-78
2020/12/11 04:33:35;;;;;;;20.10;15.18;;;0.90;99.90;;;;;;5014923;28;20181;-79
2020/12/11 04:36:01;;;;;;;18.77;13.50;;;0.90;99.90;;;;;;5015062;28;20226;-79
2020/12/11 04:38:27;;;;;;;19.57;13.87;;;0.90;99.90;;;;;;5014945;28;20179;-77
2020/12/11 04:41:01;;;;;;;21.07;13.67;;;1.00;99.90;;;;;;5013576;28;20213;-78
2020/12/11 04:43:26;;;;;;;17.33;12.93;;;0.90;99.90;;;;;;5014772;28;20197;-79
2020/12/11 04:45:53;;;;;;;18.83;14.00;;;1.00;99.90;;;;;;5014961;28;20183;-79
2020/12/11 04:48:19;;;;;;;17.83;12.10;;;1.10;99.90;;;;;;5014861;28;20202;-79
2020/12/11 04:50:45;;;;;;;20.43;14.20;;;1.20;99.90;;;;;;5014632;28;20546;-77
2020/12/11 04:53:16;;;;;;;21.23;13.43;;;1.20;99.90;;;;;;5014757;28;20414;-80
2020/12/11 04:55:43;;;;;;;17.95;12.98;;;1.30;99.90;;;;;;5015211;28;20173;-78
2020/12/11 04:58:14;;;;;;;22.00;15.40;;;1.40;99.90;;;;;;5015132;28;20186;-78
2020/12/11 05:00:41;;;;;;;20.40;14.50;;;1.40;99.90;;;;;;5014888;28;20289;-78
2020/12/11 05:03:11;;;;;;;19.08;14.20;;;1.50;99.90;;;;;;5014485;28;20175;-78
2020/12/11 05:05:37;;;;;;;21.80;15.88;;;1.60;99.90;;;;;;5014948;28;20159;-79
2020/12/11 05:08:16;;;;;;;24.57;16.87;;;1.70;99.90;;;;;;5014801;28;20186;-80
2020/12/11 05:10:42;;;;;;;19.10;14.05;;;1.70;99.90;;;;;;5014389;28;20245;-78
2020/12/11 05:13:23;;;;;;;26.23;16.30;;;1.70;99.90;;;;;;5014089;28;20577;-77
2020/12/11 05:16:16;;;;;;;22.33;16.15;;;1.80;99.90;;;;;;5014437;28;20167;-78
2020/12/11 05:18:41;;;;;;;24.17;16.92;;;1.70;99.90;;;;;;5013313;28;20233;-79
2020/12/11 05:21:21;;;;;;;24.43;16.20;;;1.70;99.90;;;;;;5013975;28;20199;-79
2020/12/11 05:24:04;;;;;;;20.27;14.68;;;1.70;99.90;;;;;;5012699;28;20415;-79
2020/12/11 05:26:35;;;;;;;21.85;15.32;;;1.80;99.90;;;;;;5014071;28;20179;-78
2020/12/11 05:29:02;;;;;;;25.58;16.50;;;1.90;99.90;;;;;;5013985;28;20202;-78
2020/12/11 05:31:28;;;;;;;24.75;16.05;;;1.80;99.90;;;;;;5012656;28;20204;-80
2020/12/11 05:34:10;;;;;;;27.83;16.13;;;1.90;99.90;;;;;;5013805;28;20184;-79
2020/12/11 05:36:44;;;;;;;24.95;14.40;;;1.80;99.90;;;;;;5014041;28;20473;-78
2020/12/11 05:39:10;;;;;;;23.30;15.68;;;1.90;99.90;;;;;;5013761;28;20653;-77
2020/12/11 05:41:37;;;;;;;23.00;16.00;;;1.90;99.90;;;;;;5013863;28;20246;-78
2020/12/11 05:44:21;;;;;;;23.75;15.75;;;1.90;99.90;;;;;;5013568;28;20546;-79
2020/12/11 05:46:46;;;;;;;26.33;16.80;;;1.90;99.90;;;;;;5013821;28;20180;-78
2020/12/11 05:49:23;;;;;;;35.37;17.80;;;1.90;99.90;;;;;;5013533;28;20203;-76
2020/12/11 05:51:55;;;;;;;22.33;17.05;;;1.80;99.90;;;;;;5013569;28;20196;-77
2020/12/11 05:54:22;;;;;;;21.63;15.50;;;1.70;99.90;;;;;;5013951;28;20549;-78
2020/12/11 05:56:50;;;;;;;23.23;15.68;;;1.60;99.90;;;;;;5013843;28;20648;-77
2020/12/11 05:59:19;;;;;;;21.00;15.13;;;1.60;99.90;;;;;;5012361;28;20179;-79
2020/12/11 06:01:46;;;;;;;21.92;14.95;;;1.70;99.90;;;;;;5013232;28;20193;-77
2020/12/11 06:04:13;;;;;;;23.63;15.63;;;1.60;99.90;;;;;;5013446;28;20179;-79
2020/12/11 06:06:39;;;;;;;21.30;15.13;;;1.60;99.90;;;;;;5013820;28;20175;-77
2020/12/11 06:09:06;;;;;;;22.73;15.03;;;1.60;99.90;;;;;;5013883;28;20294;-77
2020/12/11 06:11:44;;;;;;;24.45;17.30;;;1.60;99.90;;;;;;5013571;28;20516;-77
2020/12/11 06:14:21;;;;;;;24.20;17.08;;;1.50;99.90;;;;;;5013598;28;20178;-79
2020/12/11 06:16:48;;;;;;;26.17;17.13;;;1.60;99.90;;;;;;5013678;28;20170;-77
2020/12/11 06:19:15;;;;;;;23.25;15.80;;;1.60;99.90;;;;;;5013569;28;20205;-77
2020/12/11 06:21:43;;;;;;;20.95;14.18;;;1.50;99.90;;;;;;5013675;28;20234;-76
2020/12/11 06:24:29;;;;;;;25.23;16.45;;;1.50;99.90;;;;;;5013348;28;20683;-78
2020/12/11 06:27:00;;;;;;;22.15;16.02;;;1.50;99.90;;;;;;5012323;28;20619;-77
2020/12/11 06:29:28;;;;;;;25.95;17.35;;;1.40;99.90;;;;;;5013351;28;20194;-77
2020/12/11 06:31:54;;;;;;;27.80;17.42;;;1.40;99.90;;;;;;5013119;28;20192;-79
2020/12/11 06:34:21;;;;;;;28.25;16.95;;;1.50;99.90;;;;;;5013608;28;20237;-76
2020/12/11 06:36:48;;;;;;;26.85;17.88;;;1.50;99.90;;;;;;5015875;28;20519;-76
2020/12/11 06:39:41;;;;;;;23.70;16.33;;;1.50;99.90;;;;;;5015790;28;20214;-76
2020/12/11 06:42:08;;;;;;;22.75;13.98;;;1.60;99.90;;;;;;5016859;28;20190;-77
2020/12/11 06:44:34;;;;;;;22.30;14.45;;;1.60;99.90;;;;;;5016934;28;20608;-77
2020/12/11 06:47:10;;;;;;;18.77;13.68;;;1.60;99.90;;;;;;5016850;28;20230;-76
2020/12/11 06:49:56;;;;;;;15.45;10.77;;;1.70;99.90;;;;;;5016552;28;20666;-77
2020/12/11 06:52:22;;;;;;;15.90;11.43;;;1.70;99.90;;;;;;5016522;28;20632;-77
2020/12/11 06:54:47;;;;;;;17.33;12.50;;;1.70;99.90;;;;;;5016914;28;20226;-77
2020/12/11 06:57:33;;;;;;;17.83;12.77;;;1.80;99.90;;;;;;5017020;28;20168;-77
2020/12/11 06:59:59;;;;;;;22.40;14.20;;;1.70;99.90;;;;;;5017064;28;20177;-77
2020/12/11 07:02:27;;;;;;;17.00;11.70;;;1.80;99.90;;;;;;5016827;28;20207;-79
2020/12/11 07:04:53;;;;;;;15.90;11.57;;;1.80;99.90;;;;;;5016882;28;20183;-79
2020/12/11 07:07:19;;;;;;;14.90;11.00;;;1.80;99.90;;;;;;5016831;28;20190;-77
2020/12/11 07:09:51;;;;;;;14.93;12.30;;;1.70;99.90;;;;;;5016624;28;20257;-78
2020/12/11 07:12:17;;;;;;;15.60;12.15;;;1.80;99.90;;;;;;5015053;28;20546;-77
2020/12/11 07:14:46;;;;;;;16.07;12.70;;;1.90;99.90;;;;;;5016483;28;20174;-78
2020/12/11 07:17:24;;;;;;;14.32;10.23;;;1.80;99.90;;;;;;5016511;28;20180;-78
2020/12/11 07:19:50;;;;;;;16.88;12.10;;;1.90;99.90;;;;;;5016298;28;20272;-76
2020/12/11 07:22:18;;;;;;;17.20;12.40;;;1.90;99.90;;;;;;5015990;28;20355;-77
2020/12/11 07:24:44;;;;;;;15.18;11.48;;;1.80;99.90;;;;;;5015033;28;20542;-77
2020/12/11 07:27:10;;;;;;;14.10;11.77;;;1.90;99.90;;;;;;5016501;28;20625;-76
2020/12/11 07:29:36;;;;;;;16.70;11.73;;;1.90;99.90;;;;;;5015380;28;20253;-78
2020/12/11 07:32:01;;;;;;;18.03;12.10;;;2.00;99.90;;;;;;5015706;28;20224;-77
2020/12/11 07:34:29;;;;;;;17.23;11.53;;;1.90;99.90;;;;;;5016367;28;20168;-79
2020/12/11 07:36:58;;;;;;;15.77;11.90;;;2.00;99.90;;;;;;5015767;28;20675;-76
2020/12/11 07:39:31;;;;;;;15.20;10.43;;;2.00;99.90;;;;;;5014539;28;20187;-77
2020/12/11 07:42:02;;;;;;;18.05;11.90;;;1.80;99.90;;;;;;5014370;28;20208;-77
2020/12/11 07:44:33;;;;;;;14.48;10.90;;;1.90;99.90;;;;;;5015711;28;20179;-76
2020/12/11 07:47:02;;;;;;;15.25;10.57;;;2.00;99.90;;;;;;5014394;28;20182;-75
2020/12/11 07:49:37;;;;;;;15.43;11.43;;;2.10;99.90;;;;;;5015528;28;20204;-77
2020/12/11 07:52:04;;;;;;;14.30;10.65;;;2.10;99.90;;;;;;5013794;28;20645;-77
2020/12/11 07:54:43;;;;;;;19.35;12.38;;;2.10;99.90;;;;;;5014097;28;20693;-75
2020/12/11 07:57:18;;;;;;;13.90;10.95;;;2.10;99.90;;;;;;5015598;28;20168;-77
2020/12/11 08:00:12;;;;;;;16.33;10.68;;;2.20;99.90;;;;;;5014188;28;20491;-77
2020/12/11 08:02:51;;;;;;;18.23;11.98;;;2.20;99.90;;;;;;5014844;28;20640;-78
2020/12/11 08:05:16;;;;;;;13.02;10.77;;;2.30;99.90;;;;;;5015827;28;20182;-78
2020/12/11 08:07:47;;;;;;;15.60;11.93;;;2.40;99.90;;;;;;5015298;28;20732;-78
2020/12/11 08:10:14;;;;;;;15.52;10.70;;;2.40;99.90;;;;;;5015116;28;20199;-77
2020/12/11 08:12:41;;;;;;;11.55;8.93;;;2.50;99.90;;;;;;5014775;28;20176;-75
2020/12/11 08:15:07;;;;;;;15.13;10.35;;;2.50;99.90;;;;;;5015144;28;20177;-77
2020/12/11 08:17:34;;;;;;;15.00;10.50;;;2.50;99.90;;;;;;5014079;28;20182;-76
2020/12/11 08:20:02;;;;;;;15.98;10.60;;;2.50;99.90;;;;;;5015247;28;20636;-77
2020/12/11 08:22:42;;;;;;;16.27;11.48;;;2.50;99.90;;;;;;5014688;28;20188;-76
2020/12/11 08:25:17;;;;;;;14.18;11.35;;;2.60;99.90;;;;;;5015117;28;20642;-77
2020/12/11 08:27:43;;;;;;;14.43;10.95;;;2.60;99.90;;;;;;5015021;28;20181;-77
2020/12/11 08:30:14;;;;;;;12.83;10.10;;;2.60;99.90;;;;;;5013514;28;20226;-76
2020/12/11 08:32:40;;;;;;;15.35;11.05;;;2.80;99.90;;;;;;5014519;28;20421;-77
2020/12/11 08:35:18;;;;;;;12.45;10.68;;;2.70;99.90;;;;;;5013524;28;20594;-76
2020/12/11 08:37:57;;;;;;;13.25;10.00;;;2.80;99.90;;;;;;5014879;28;20174;-78
2020/12/11 08:40:24;;;;;;;15.40;10.55;;;2.90;99.90;;;;;;5014634;28;20650;-78
2020/12/11 08:43:15;;;;;;;12.15;9.48;;;2.80;99.90;;;;;;5012997;28;20190;-79
2020/12/11 08:49:06;;;;;;;13.15;10.27;;;3.00;99.90;;;;;;5014557;28;20207;-76
2020/12/11 08:51:32;;;;;;;16.85;11.25;;;3.10;99.90;;;;;;5013223;28;20557;-76
2020/12/11 08:54:00;;;;;;;14.87;10.83;;;3.10;99.90;;;;;;5012733;28;20198;-78
2020/12/11 08:56:25;;;;;;;16.58;11.13;;;3.00;99.90;;;;;;5013240;28;20181;-77
2020/12/11 08:58:51;;;;;;;13.00;10.30;;;3.10;99.90;;;;;;5012574;28;20632;-76
2020/12/11 09:01:16;;;;;;;13.57;11.27;;;3.20;99.90;;;;;;5014436;28;20194;-76
2020/12/11 09:03:42;;;;;;;13.93;10.50;;;3.30;99.90;;;;;;5014089;28;20178;-77
2020/12/11 09:06:07;;;;;;;13.00;10.27;;;3.30;99.90;;;;;;5013319;28;20629;-76
2020/12/11 09:08:33;;;;;;;13.43;10.00;;;3.30;99.90;;;;;;5014342;28;20198;-78
2020/12/11 09:10:59;;;;;;;14.37;9.57;;;3.30;99.90;;;;;;5014145;28;20281;-77
2020/12/11 09:13:24;;;;;;;9.87;7.90;;;3.30;99.90;;;;;;5012495;28;20179;-79
2020/12/11 09:15:50;;;;;;;13.40;9.53;;;3.30;99.90;;;;;;5014035;28;20200;-78
2020/12/11 09:18:15;;;;;;;14.23;9.53;;;3.30;99.90;;;;;;5014034;28;20169;-77
2020/12/11 09:20:41;;;;;;;11.00;9.43;;;3.40;99.90;;;;;;5012613;28;20205;-78
2020/12/11 09:23:07;;;;;;;10.87;9.50;;;3.40;99.90;;;;;;5012353;28;20543;-78
2020/12/11 09:25:32;;;;;;;11.93;9.40;;;3.50;99.90;;;;;;5012694;28;20178;-76
2020/12/11 09:27:58;;;;;;;14.07;9.90;;;3.40;99.90;;;;;;5014194;28;20209;-77
2020/12/11 09:30:33;;;;;;;12.83;10.13;;;3.50;99.90;;;;;;5013831;28;20209;-76
2020/12/11 09:35:26;;;;;;;11.63;8.77;;;3.60;99.90;;;;;;5014101;28;20202;-78
2020/12/11 09:37:52;;;;;;;12.55;8.82;;;3.70;99.90;;;;;;5012567;28;20261;-77
2020/12/11 09:40:22;;;;;;;12.85;9.18;;;3.80;99.90;;;;;;5013773;28;20726;-78
2020/12/11 09:43:08;;;;;;;12.35;7.85;;;3.70;99.90;;;;;;5013435;28;20696;-76
2020/12/11 09:45:58;;;;;;;9.38;7.22;;;3.70;99.90;;;;;;5013680;28;20186;-78
2020/12/11 09:54:07;;;;;;;12.77;8.57;;;4.00;99.90;;;;;;5013111;28;20650;-78
2020/12/11 09:56:32;;;;;;;7.95;6.78;;;4.20;99.90;;;;;;5013400;28;20646;-76
2020/12/11 09:59:01;;;;;;;10.50;8.27;;;4.30;99.90;;;;;;5013456;28;20175;-76
2020/12/11 10:04:19;;;;;;;9.85;7.30;;;4.40;99.90;;;;;;5020317;28;20555;-77
2020/12/11 10:06:45;;;;;;;9.60;7.40;;;4.50;99.90;;;;;;5013406;28;20179;-78
2020/12/11 10:09:11;;;;;;;10.40;8.30;;;4.60;99.90;;;;;;5013086;28;20198;-79
2020/12/11 10:11:36;;;;;;;9.43;7.30;;;4.50;99.90;;;;;;5015674;28;20595;-78
2020/12/11 10:14:48;;;;;;;9.00;7.53;;;4.50;99.90;;;;;;5015793;28;20265;-77
2020/12/11 10:16:53;;;;;;;10.20;6.75;;;4.60;99.90;;;;;;5017128;28;20230;-79
2020/12/11 10:19:21;;;;;;;7.43;6.63;;;4.70;99.90;;;;;;5017224;28;20171;-78
2020/12/11 10:21:50;;;;;;;8.25;7.38;;;4.60;99.90;;;;;;5015892;28;20206;-77
2020/12/11 10:24:17;;;;;;;9.48;7.22;;;4.60;99.90;;;;;;5017518;28;20707;-77
2020/12/11 10:26:42;;;;;;;10.85;8.32;;;4.60;99.90;;;;;;5017149;28;20547;-77
2020/12/11 10:29:09;;;;;;;9.53;7.93;;;4.60;99.90;;;;;;5015805;28;20214;-78
2020/12/11 10:31:35;;;;;;;10.35;6.45;;;4.60;99.90;;;;;;5017002;28;20226;-79
2020/12/11 10:34:01;;;;;;;9.13;7.77;;;4.50;99.90;;;;;;5016817;28;20199;-77
2020/12/11 10:36:34;;;;;;;10.83;8.67;;;4.50;99.90;;;;;;5017040;28;20209;-76
2020/12/11 10:38:59;;;;;;;9.60;8.32;;;4.50;99.90;;;;;;5015649;28;20183;-78
2020/12/11 10:41:26;;;;;;;11.05;8.13;;;4.50;99.90;;;;;;5016823;28;20209;-77
2020/12/11 10:43:52;;;;;;;10.57;8.95;;;4.40;99.90;;;;;;5015314;28;20213;-78
2020/12/11 10:46:18;;;;;;;10.27;8.73;;;4.40;99.90;;;;;;5016868;28;20193;-78
2020/12/11 10:48:44;;;;;;;9.67;8.03;;;4.50;99.90;;;;;;5016672;28;20195;-76
2020/12/11 10:51:11;;;;;;;11.00;8.63;;;4.50;99.90;;;;;;5016677;28;20261;-78
2020/12/11 10:53:37;;;;;;;11.30;8.43;;;4.60;99.90;;;;;;5015077;28;20182;-78
2020/12/11 10:56:09;;;;;;;11.55;9.20;;;4.60;99.90;;;;;;5016605;28;20171;-78
2020/12/11 10:58:36;;;;;;;10.57;7.93;;;4.60;99.90;;;;;;5016640;28;20222;-78
2020/12/11 11:01:10;;;;;;;11.75;9.27;;;4.80;99.90;;;;;;5016422;28;20195;-79
2020/12/11 11:03:36;;;;;;;10.73;9.63;;;4.90;99.90;;;;;;5014896;28;20712;-77
2020/12/11 11:06:11;;;;;;;13.93;9.73;;;4.80;99.90;;;;;;5015276;28;20213;-77
2020/12/11 11:11:08;;;;;;;10.75;8.32;;;4.80;99.90;;;;;;5016541;28;20246;-78
2020/12/11 11:13:48;;;;;;;11.70;8.57;;;5.00;99.90;;;;;;5016080;28;20174;-77
2020/12/11 11:16:17;;;;;;;10.55;8.80;;;5.20;99.90;;;;;;5016463;28;20180;-78
2020/12/11 11:18:54;;;;;;;8.27;6.82;;;5.40;99.90;;;;;;5015020;28;20557;-78
2020/12/11 11:26:56;;;;;;;15.73;8.45;;;5.80;99.90;;;;;;5016050;28;20175;-78
2020/12/11 11:29:22;;;;;;;9.10;7.30;;;5.90;99.90;;;;;;5016069;28;20206;-78
2020/12/11 11:31:47;;;;;;;9.73;7.90;;;6.10;99.90;;;;;;5015979;28;20647;-78
2020/12/11 11:34:13;;;;;;;10.30;8.00;;;6.40;99.90;;;;;;5016008;28;20175;-77
2020/12/11 11:36:38;;;;;;;10.70;8.07;;;6.50;99.90;;;;;;5016080;28;20181;-79
2020/12/11 11:39:04;;;;;;;8.57;6.90;;;6.50;99.90;;;;;;5014546;28;20258;-78
2020/12/11 11:41:48;;;;;;;8.53;7.50;;;6.50;99.90;;;;;;5015906;28;20194;-78
2020/12/11 11:46:47;;;;;;;7.07;6.38;;;6.70;99.90;;;;;;5015980;28;20188;-78
2020/12/11 11:49:17;;;;;;;7.82;6.28;;;6.60;99.90;;;;;;5014458;28;20237;-78
2020/12/11 11:51:51;;;;;;;9.02;7.10;;;6.40;99.90;;;;;;5015557;28;20213;-78
2020/12/11 11:54:17;;;;;;;9.55;6.80;;;6.60;99.90;;;;;;5015575;28;20185;-79
2020/12/11 11:56:42;;;;;;;8.87;6.77;;;6.70;99.90;;;;;;5015610;28;20201;-78
2020/12/11 11:59:08;;;;;;;7.90;7.10;;;6.80;99.90;;;;;;5015690;28;20272;-77
2020/12/11 12:01:34;;;;;;;7.80;6.10;;;6.70;99.90;;;;;;5015497;28;20201;-77
2020/12/11 12:03:59;;;;;;;7.20;6.50;;;6.80;99.90;;;;;;5015068;28;20256;-79
2020/12/11 12:06:25;;;;;;;8.87;7.70;;;6.70;99.90;;;;;;5015432;28;20175;-79
2020/12/11 12:08:50;;;;;;;9.07;6.20;;;6.90;99.90;;;;;;5015557;28;20602;-78
2020/12/11 12:11:16;;;;;;;9.67;6.13;;;6.90;99.90;;;;;;5015245;28;20234;-77
2020/12/11 12:13:41;;;;;;;7.50;6.10;;;6.90;99.90;;;;;;5014993;28;20635;-77
2020/12/11 12:16:07;;;;;;;7.00;6.30;;;7.00;99.90;;;;;;5015045;28;20214;-76
2020/12/11 12:18:34;;;;;;;6.30;5.67;;;7.00;99.90;;;;;;5015148;28;20181;-77
2020/12/11 12:21:08;;;;;;;7.07;5.95;;;7.20;99.90;;;;;;5015000;28;20205;-78
2020/12/11 12:29:09;;;;;;;7.75;5.63;;;7.20;99.90;;;;;;5015183;28;20749;-77
2020/12/11 12:31:43;;;;;;;6.70;6.00;;;7.10;99.90;;;;;;5013515;28;20199;-79
2020/12/11 12:44:46;;;;;;;5.07;3.70;;;7.10;99.90;;;;;;5014649;28;20189;-77
2020/12/11 12:47:12;;;;;;;3.00;2.53;;;7.10;99.90;;;;;;5014668;28;20184;-77
2020/12/11 12:49:37;;;;;;;3.60;3.20;;;7.10;99.90;;;;;;5014606;28;20214;-77
2020/12/11 12:52:03;;;;;;;3.60;3.27;;;7.00;99.90;;;;;;5014193;28;20229;-77
2020/12/11 12:54:29;;;;;;;3.60;3.30;;;7.10;99.90;;;;;;5014247;28;20192;-76
2020/12/11 12:56:57;;;;;;;4.20;3.17;;;7.10;99.90;;;;;;5014435;28;20536;-78
2020/12/11 13:05:08;;;;;;;5.40;3.97;;;7.00;99.90;;;;;;5013344;28;20705;-77
2020/12/11 13:07:34;;;;;;;4.57;4.18;;;7.10;99.90;;;;;;5013002;28;20174;-77
2020/12/11 13:10:00;;;;;;;5.90;4.57;;;6.90;99.90;;;;;;5014146;28;20203;-77
2020/12/11 13:12:26;;;;;;;7.30;4.90;;;6.80;99.90;;;;;;5013936;28;20171;-78
2020/12/11 13:14:51;;;;;;;5.75;4.28;;;6.60;99.90;;;;;;5014271;28;20293;-77
2020/12/11 13:17:17;;;;;;;6.03;4.70;;;6.60;99.90;;;;;;5013958;28;20601;-77
2020/12/11 13:19:43;;;;;;;5.50;4.87;;;6.60;99.90;;;;;;5014177;28;20698;-78
2020/12/11 13:22:28;;;;;;;6.47;4.85;;;6.40;99.90;;;;;;5013610;28;20257;-78
2020/12/11 13:27:40;;;;;;;6.82;5.88;;;6.50;99.90;;;;;;5013949;28;20188;-78
2020/12/11 13:30:06;;;;;;;7.03;5.85;;;6.40;99.90;;;;;;5013819;28;20202;-77
2020/12/11 13:32:32;;;;;;;8.38;6.85;;;6.50;99.90;;;;;;5013458;28;20172;-78
2020/12/11 13:34:57;;;;;;;6.80;5.87;;;6.40;99.90;;;;;;5013676;28;20337;-77
2020/12/11 13:37:28;;;;;;;9.47;7.50;;;6.40;99.90;;;;;;5013751;28;20591;-78